sensor_id;sensor_type;location;lat;lon;timestamp;P1;durP1;ratioP1;P2;durP2;ratioP2
84852;SDS011;75109;47.440;19.310;2024-02-26T00:00:09;23.23;;;23.23;;
84852;SDS011;75109;47.440;19.310;2024-02-26T00:00:42;21.43;;;21.43;;
84852;SDS011;75109;47.440;19.310;2024-02-26T00:01:14;21.27;;;21.27;;
84852;SDS011;75109;47.440;19.310;2024-02-26T00:01:46;22.30;;;22.30;;
84852;SDS011;75109;47.440;19.310;2024-02-26T00:02:18;24.60;;;24.60;;
84852;SDS011;75109;47.440;19.310;2024-02-26T00:02:50;23.33;;;23.33;;
84852;SDS011;75109;47.440;19.310;2024-02-26T00:03:22;24.03;;;24.03;;
84852;SDS011;75109;47.440;19.310;2024-02-26T00:03:54;24.10;;;24.10;;
84852;SDS011;75109;47.440;19.310;2024-02-26T00:04:31;24.00;;;24.00;;
84852;SDS011;75109;47.440;19.310;2024-02-26T00:05:03;24.43;;;24.43;;
84852;SDS011;75109;47.440;19.310;2024-02-26T00:05:36;23.60;;;23.60;;
84852;SDS011;75109;47.440;19.310;2024-02-26T00:06:10;23.57;;;23.57;;
84852;SDS011;75109;47.440;19.310;2024-02-26T00:06:42;24.63;;;24.63;;
84852;SDS011;75109;47.440;19.310;2024-02-26T00:07:14;24.20;;;24.17;;
84852;SDS011;75109;47.440;19.310;2024-02-26T00:07:46;24.97;;;24.97;;
84852;SDS011;75109;47.440;19.310;2024-02-26T00:08:19;24.87;;;24.87;;
84852;SDS011;75109;47.440;19.310;2024-02-26T00:08:51;24.77;;;24.77;;
84852;SDS011;75109;47.440;19.310;2024-02-26T00:09:23;25.83;;;25.83;;
84852;SDS011;75109;47.440;19.310;2024-02-26T00:09:55;25.20;;;25.20;;
84852;SDS011;75109;47.440;19.310;2024-02-26T00:10:29;24.70;;;24.70;;
84852;SDS011;75109;47.440;19.310;2024-02-26T00:11:01;24.30;;;24.30;;
84852;SDS011;75109;47.440;19.310;2024-02-26T00:11:33;24.00;;;24.00;;
84852;SDS011;75109;47.440;19.310;2024-02-26T00:12:06;24.50;;;24.50;;
84852;SDS011;75109;47.440;19.310;2024-02-26T00:12:38;25.00;;;25.00;;
84852;SDS011;75109;47.440;19.310;2024-02-26T00:13:10;24.13;;;24.13;;
84852;SDS011;75109;47.440;19.310;2024-02-26T00:13:42;23.80;;;23.80;;
84852;SDS011;75109;47.440;19.310;2024-02-26T00:14:14;24.67;;;24.67;;
84852;SDS011;75109;47.440;19.310;2024-02-26T00:14:47;24.53;;;24.53;;
84852;SDS011;75109;47.440;19.310;2024-02-26T00:15:21;25.23;;;25.17;;
84852;SDS011;75109;47.440;19.310;2024-02-26T00:15:53;26.03;;;26.03;;
84852;SDS011;75109;47.440;19.310;2024-02-26T00:16:25;24.80;;;24.80;;
84852;SDS011;75109;47.440;19.310;2024-02-26T00:16:57;25.70;;;25.67;;
84852;SDS011;75109;47.440;19.310;2024-02-26T00:17:29;26.93;;;26.93;;
84852;SDS011;75109;47.440;19.310;2024-02-26T00:18:01;25.17;;;25.17;;
84852;SDS011;75109;47.440;19.310;2024-02-26T00:18:33;24.70;;;24.70;;
84852;SDS011;75109;47.440;19.310;2024-02-26T00:19:05;25.27;;;25.27;;
84852;SDS011;75109;47.440;19.310;2024-02-26T00:19:37;25.07;;;25.07;;
84852;SDS011;75109;47.440;19.310;2024-02-26T00:20:10;24.80;;;24.80;;
84852;SDS011;75109;47.440;19.310;2024-02-26T00:20:42;24.90;;;24.90;;
84852;SDS011;75109;47.440;19.310;2024-02-26T00:21:15;24.60;;;24.60;;
84852;SDS011;75109;47.440;19.310;2024-02-26T00:21:47;25.63;;;25.63;;
84852;SDS011;75109;47.440;19.310;2024-02-26T00:22:19;24.53;;;24.53;;
84852;SDS011;75109;47.440;19.310;2024-02-26T00:22:51;25.57;;;25.50;;
84852;SDS011;75109;47.440;19.310;2024-02-26T00:23:23;26.20;;;26.20;;
84852;SDS011;75109;47.440;19.310;2024-02-26T00:23:55;25.53;;;25.53;;
84852;SDS011;75109;47.440;19.310;2024-02-26T00:24:27;25.53;;;25.53;;
84852;SDS011;75109;47.440;19.310;2024-02-26T00:24:59;25.77;;;25.77;;
84852;SDS011;75109;47.440;19.310;2024-02-26T00:25:33;25.63;;;25.63;;
84852;SDS011;75109;47.440;19.310;2024-02-26T00:26:05;25.17;;;25.17;;
84852;SDS011;75109;47.440;19.310;2024-02-26T00:26:37;24.30;;;24.30;;
84852;SDS011;75109;47.440;19.310;2024-02-26T00:27:09;24.07;;;24.07;;
84852;SDS011;75109;47.440;19.310;2024-02-26T00:27:42;24.63;;;24.63;;
84852;SDS011;75109;47.440;19.310;2024-02-26T00:28:15;24.43;;;24.43;;
84852;SDS011;75109;47.440;19.310;2024-02-26T00:28:47;25.20;;;25.20;;
84852;SDS011;75109;47.440;19.310;2024-02-26T00:29:19;24.97;;;24.97;;
84852;SDS011;75109;47.440;19.310;2024-02-26T00:29:51;24.23;;;24.23;;
84852;SDS011;75109;47.440;19.310;2024-02-26T00:30:23;25.17;;;25.17;;
84852;SDS011;75109;47.440;19.310;2024-02-26T00:30:56;24.90;;;24.90;;
84852;SDS011;75109;47.440;19.310;2024-02-26T00:31:28;25.60;;;25.60;;
84852;SDS011;75109;47.440;19.310;2024-02-26T00:32:00;24.93;;;24.93;;
84852;SDS011;75109;47.440;19.310;2024-02-26T00:32:32;24.07;;;24.07;;
84852;SDS011;75109;47.440;19.310;2024-02-26T00:33:04;24.27;;;24.27;;
84852;SDS011;75109;47.440;19.310;2024-02-26T00:33:36;23.73;;;23.73;;
84852;SDS011;75109;47.440;19.310;2024-02-26T00:34:08;23.33;;;23.33;;
84852;SDS011;75109;47.440;19.310;2024-02-26T00:34:40;23.97;;;23.97;;
84852;SDS011;75109;47.440;19.310;2024-02-26T00:35:12;23.50;;;23.50;;
84852;SDS011;75109;47.440;19.310;2024-02-26T00:35:45;22.90;;;22.90;;
84852;SDS011;75109;47.440;19.310;2024-02-26T00:36:17;22.80;;;22.73;;
84852;SDS011;75109;47.440;19.310;2024-02-26T00:36:50;22.80;;;22.37;;
84852;SDS011;75109;47.440;19.310;2024-02-26T00:37:22;22.93;;;22.90;;
84852;SDS011;75109;47.440;19.310;2024-02-26T00:37:54;23.13;;;23.13;;
84852;SDS011;75109;47.440;19.310;2024-02-26T00:38:26;22.63;;;22.63;;
84852;SDS011;75109;47.440;19.310;2024-02-26T00:38:58;21.90;;;21.90;;
84852;SDS011;75109;47.440;19.310;2024-02-26T00:39:30;22.57;;;22.57;;
84852;SDS011;75109;47.440;19.310;2024-02-26T00:40:02;22.20;;;22.20;;
84852;SDS011;75109;47.440;19.310;2024-02-26T00:40:36;22.23;;;22.23;;
84852;SDS011;75109;47.440;19.310;2024-02-26T00:41:08;21.50;;;21.50;;
84852;SDS011;75109;47.440;19.310;2024-02-26T00:41:40;20.67;;;20.67;;
84852;SDS011;75109;47.440;19.310;2024-02-26T00:42:12;21.93;;;21.93;;
84852;SDS011;75109;47.440;19.310;2024-02-26T00:42:44;21.53;;;21.53;;
84852;SDS011;75109;47.440;19.310;2024-02-26T00:43:17;21.33;;;21.33;;
84852;SDS011;75109;47.440;19.310;2024-02-26T00:43:49;21.40;;;21.40;;
84852;SDS011;75109;47.440;19.310;2024-02-26T00:44:21;22.27;;;22.27;;
84852;SDS011;75109;47.440;19.310;2024-02-26T00:44:53;23.27;;;23.27;;
84852;SDS011;75109;47.440;19.310;2024-02-26T00:45:26;21.67;;;21.67;;
84852;SDS011;75109;47.440;19.310;2024-02-26T00:45:59;20.93;;;20.93;;
84852;SDS011;75109;47.440;19.310;2024-02-26T00:46:31;21.07;;;20.97;;
84852;SDS011;75109;47.440;19.310;2024-02-26T00:47:03;21.23;;;21.13;;
84852;SDS011;75109;47.440;19.310;2024-02-26T00:47:35;20.97;;;20.97;;
84852;SDS011;75109;47.440;19.310;2024-02-26T00:48:07;20.47;;;20.47;;
84852;SDS011;75109;47.440;19.310;2024-02-26T00:48:39;21.17;;;21.17;;
84852;SDS011;75109;47.440;19.310;2024-02-26T00:49:11;20.87;;;20.83;;
84852;SDS011;75109;47.440;19.310;2024-02-26T00:49:43;21.40;;;21.40;;
84852;SDS011;75109;47.440;19.310;2024-02-26T00:50:16;21.87;;;21.87;;
84852;SDS011;75109;47.440;19.310;2024-02-26T00:50:48;21.40;;;21.37;;
84852;SDS011;75109;47.440;19.310;2024-02-26T00:51:20;21.57;;;21.57;;
84852;SDS011;75109;47.440;19.310;2024-02-26T00:51:53;20.77;;;20.73;;
84852;SDS011;75109;47.440;19.310;2024-02-26T00:52:25;21.27;;;21.13;;
84852;SDS011;75109;47.440;19.310;2024-02-26T00:52:57;20.77;;;20.77;;
84852;SDS011;75109;47.440;19.310;2024-02-26T00:53:29;21.03;;;20.87;;
84852;SDS011;75109;47.440;19.310;2024-02-26T00:54:01;21.27;;;21.20;;
84852;SDS011;75109;47.440;19.310;2024-02-26T00:54:34;21.53;;;21.53;;
84852;SDS011;75109;47.440;19.310;2024-02-26T00:55:06;21.43;;;21.43;;
84852;SDS011;75109;47.440;19.310;2024-02-26T00:55:40;21.80;;;21.80;;
84852;SDS011;75109;47.440;19.310;2024-02-26T00:56:12;21.67;;;21.63;;
84852;SDS011;75109;47.440;19.310;2024-02-26T00:56:44;21.63;;;21.60;;
84852;SDS011;75109;47.440;19.310;2024-02-26T00:57:16;20.97;;;20.97;;
84852;SDS011;75109;47.440;19.310;2024-02-26T00:57:48;21.60;;;21.60;;
84852;SDS011;75109;47.440;19.310;2024-02-26T00:58:20;21.60;;;21.60;;
84852;SDS011;75109;47.440;19.310;2024-02-26T00:58:52;20.33;;;20.27;;
84852;SDS011;75109;47.440;19.310;2024-02-26T00:59:24;21.13;;;21.00;;
84852;SDS011;75109;47.440;19.310;2024-02-26T00:59:56;21.00;;;21.00;;
84852;SDS011;75109;47.440;19.310;2024-02-26T01:00:28;21.37;;;21.37;;
84852;SDS011;75109;47.440;19.310;2024-02-26T01:01:01;21.83;;;21.83;;
84852;SDS011;75109;47.440;19.310;2024-02-26T01:01:33;22.00;;;22.00;;
84852;SDS011;75109;47.440;19.310;2024-02-26T01:02:05;21.03;;;21.03;;
84852;SDS011;75109;47.440;19.310;2024-02-26T01:02:38;21.53;;;21.53;;
84852;SDS011;75109;47.440;19.310;2024-02-26T01:03:10;25.77;;;25.77;;
84852;SDS011;75109;47.440;19.310;2024-02-26T01:03:42;23.63;;;23.63;;
84852;SDS011;75109;47.440;19.310;2024-02-26T01:04:14;23.07;;;23.07;;
84852;SDS011;75109;47.440;19.310;2024-02-26T01:04:46;22.83;;;22.70;;
84852;SDS011;75109;47.440;19.310;2024-02-26T01:05:18;24.77;;;24.23;;
84852;SDS011;75109;47.440;19.310;2024-02-26T01:05:50;26.30;;;26.20;;
84852;SDS011;75109;47.440;19.310;2024-02-26T01:06:23;25.00;;;25.00;;
84852;SDS011;75109;47.440;19.310;2024-02-26T01:06:55;25.37;;;25.37;;
84852;SDS011;75109;47.440;19.310;2024-02-26T01:07:27;27.80;;;27.27;;
84852;SDS011;75109;47.440;19.310;2024-02-26T01:07:59;25.97;;;25.43;;
84852;SDS011;75109;47.440;19.310;2024-02-26T01:08:31;25.20;;;25.20;;
84852;SDS011;75109;47.440;19.310;2024-02-26T01:09:03;26.67;;;26.60;;
84852;SDS011;75109;47.440;19.310;2024-02-26T01:09:36;25.77;;;25.73;;
84852;SDS011;75109;47.440;19.310;2024-02-26T01:10:08;25.40;;;25.40;;
84852;SDS011;75109;47.440;19.310;2024-02-26T01:10:42;25.57;;;25.57;;
84852;SDS011;75109;47.440;19.310;2024-02-26T01:11:14;26.03;;;25.97;;
84852;SDS011;75109;47.440;19.310;2024-02-26T01:11:46;26.30;;;26.17;;
84852;SDS011;75109;47.440;19.310;2024-02-26T01:12:18;26.33;;;26.33;;
84852;SDS011;75109;47.440;19.310;2024-02-26T01:12:50;24.03;;;24.03;;
84852;SDS011;75109;47.440;19.310;2024-02-26T01:13:23;24.77;;;24.77;;
84852;SDS011;75109;47.440;19.310;2024-02-26T01:13:54;25.87;;;25.87;;
84852;SDS011;75109;47.440;19.310;2024-02-26T01:14:28;25.97;;;25.97;;
84852;SDS011;75109;47.440;19.310;2024-02-26T01:15:00;24.67;;;24.67;;
84852;SDS011;75109;47.440;19.310;2024-02-26T01:15:32;24.93;;;24.93;;
84852;SDS011;75109;47.440;19.310;2024-02-26T01:16:04;26.03;;;25.93;;
84852;SDS011;75109;47.440;19.310;2024-02-26T01:16:36;24.97;;;24.97;;
84852;SDS011;75109;47.440;19.310;2024-02-26T01:17:09;24.90;;;24.90;;
84852;SDS011;75109;47.440;19.310;2024-02-26T01:17:41;24.77;;;24.77;;
84852;SDS011;75109;47.440;19.310;2024-02-26T01:18:13;24.80;;;24.80;;
84852;SDS011;75109;47.440;19.310;2024-02-26T01:18:46;25.73;;;25.73;;
84852;SDS011;75109;47.440;19.310;2024-02-26T01:19:18;25.37;;;25.37;;
84852;SDS011;75109;47.440;19.310;2024-02-26T01:19:50;23.97;;;23.97;;
84852;SDS011;75109;47.440;19.310;2024-02-26T01:20:22;24.73;;;24.73;;
84852;SDS011;75109;47.440;19.310;2024-02-26T01:20:54;25.00;;;25.00;;
84852;SDS011;75109;47.440;19.310;2024-02-26T01:21:26;23.20;;;23.20;;
84852;SDS011;75109;47.440;19.310;2024-02-26T01:22:00;23.53;;;23.53;;
84852;SDS011;75109;47.440;19.310;2024-02-26T01:22:33;24.07;;;24.07;;
84852;SDS011;75109;47.440;19.310;2024-02-26T01:23:05;24.03;;;23.97;;
84852;SDS011;75109;47.440;19.310;2024-02-26T01:23:37;24.93;;;24.93;;
84852;SDS011;75109;47.440;19.310;2024-02-26T01:24:09;24.73;;;24.73;;
84852;SDS011;75109;47.440;19.310;2024-02-26T01:24:42;23.27;;;23.27;;
84852;SDS011;75109;47.440;19.310;2024-02-26T01:25:14;22.90;;;22.90;;
84852;SDS011;75109;47.440;19.310;2024-02-26T01:25:48;23.70;;;23.70;;
84852;SDS011;75109;47.440;19.310;2024-02-26T01:26:20;23.13;;;23.13;;
84852;SDS011;75109;47.440;19.310;2024-02-26T01:26:53;22.87;;;22.87;;
84852;SDS011;75109;47.440;19.310;2024-02-26T01:27:25;23.63;;;23.63;;
84852;SDS011;75109;47.440;19.310;2024-02-26T01:27:58;24.70;;;24.70;;
84852;SDS011;75109;47.440;19.310;2024-02-26T01:28:30;23.93;;;23.93;;
84852;SDS011;75109;47.440;19.310;2024-02-26T01:29:02;23.33;;;23.33;;
84852;SDS011;75109;47.440;19.310;2024-02-26T01:29:34;23.17;;;23.17;;
84852;SDS011;75109;47.440;19.310;2024-02-26T01:30:07;22.23;;;22.23;;
84852;SDS011;75109;47.440;19.310;2024-02-26T01:30:40;22.53;;;22.53;;
84852;SDS011;75109;47.440;19.310;2024-02-26T01:31:12;22.77;;;22.77;;
84852;SDS011;75109;47.440;19.310;2024-02-26T01:31:44;23.60;;;23.60;;
84852;SDS011;75109;47.440;19.310;2024-02-26T01:32:16;21.27;;;21.27;;
84852;SDS011;75109;47.440;19.310;2024-02-26T01:32:48;20.97;;;20.97;;
84852;SDS011;75109;47.440;19.310;2024-02-26T01:33:20;20.60;;;20.60;;
84852;SDS011;75109;47.440;19.310;2024-02-26T01:33:52;20.13;;;20.13;;
84852;SDS011;75109;47.440;19.310;2024-02-26T01:34:24;19.67;;;19.67;;
84852;SDS011;75109;47.440;19.310;2024-02-26T01:34:56;19.33;;;19.30;;
84852;SDS011;75109;47.440;19.310;2024-02-26T01:35:28;20.10;;;20.03;;
84852;SDS011;75109;47.440;19.310;2024-02-26T01:36:01;19.33;;;19.27;;
84852;SDS011;75109;47.440;19.310;2024-02-26T01:36:33;20.60;;;20.43;;
84852;SDS011;75109;47.440;19.310;2024-02-26T01:37:06;20.03;;;20.03;;
84852;SDS011;75109;47.440;19.310;2024-02-26T01:37:38;20.37;;;20.37;;
84852;SDS011;75109;47.440;19.310;2024-02-26T01:38:10;18.77;;;18.77;;
84852;SDS011;75109;47.440;19.310;2024-02-26T01:38:42;20.37;;;20.37;;
84852;SDS011;75109;47.440;19.310;2024-02-26T01:39:14;20.00;;;20.00;;
84852;SDS011;75109;47.440;19.310;2024-02-26T01:39:46;19.10;;;19.10;;
84852;SDS011;75109;47.440;19.310;2024-02-26T01:40:18;19.27;;;19.27;;
84852;SDS011;75109;47.440;19.310;2024-02-26T01:40:52;20.07;;;20.07;;
84852;SDS011;75109;47.440;19.310;2024-02-26T01:41:24;19.47;;;19.47;;
84852;SDS011;75109;47.440;19.310;2024-02-26T01:41:56;18.93;;;18.93;;
84852;SDS011;75109;47.440;19.310;2024-02-26T01:42:28;18.50;;;18.50;;
84852;SDS011;75109;47.440;19.310;2024-02-26T01:43:01;18.90;;;18.90;;
84852;SDS011;75109;47.440;19.310;2024-02-26T01:43:33;18.17;;;18.17;;
84852;SDS011;75109;47.440;19.310;2024-02-26T01:44:05;19.33;;;19.33;;
84852;SDS011;75109;47.440;19.310;2024-02-26T01:44:38;18.20;;;18.20;;
84852;SDS011;75109;47.440;19.310;2024-02-26T01:45:12;18.27;;;18.27;;
84852;SDS011;75109;47.440;19.310;2024-02-26T01:45:55;19.20;;;19.20;;
84852;SDS011;75109;47.440;19.310;2024-02-26T01:46:27;18.93;;;18.93;;
84852;SDS011;75109;47.440;19.310;2024-02-26T01:47:01;18.97;;;18.97;;
84852;SDS011;75109;47.440;19.310;2024-02-26T01:47:34;19.03;;;19.03;;
84852;SDS011;75109;47.440;19.310;2024-02-26T01:48:06;19.53;;;19.53;;
84852;SDS011;75109;47.440;19.310;2024-02-26T01:48:39;20.30;;;20.30;;
84852;SDS011;75109;47.440;19.310;2024-02-26T01:49:12;19.53;;;19.53;;
84852;SDS011;75109;47.440;19.310;2024-02-26T01:49:44;19.17;;;19.17;;
84852;SDS011;75109;47.440;19.310;2024-02-26T01:50:17;18.53;;;18.53;;
84852;SDS011;75109;47.440;19.310;2024-02-26T01:50:49;18.63;;;18.63;;
84852;SDS011;75109;47.440;19.310;2024-02-26T01:51:22;19.53;;;19.53;;
84852;SDS011;75109;47.440;19.310;2024-02-26T01:51:54;17.93;;;17.90;;
84852;SDS011;75109;47.440;19.310;2024-02-26T01:52:27;18.07;;;18.07;;
84852;SDS011;75109;47.440;19.310;2024-02-26T01:52:59;16.70;;;16.70;;
84852;SDS011;75109;47.440;19.310;2024-02-26T01:53:32;17.30;;;17.30;;
84852;SDS011;75109;47.440;19.310;2024-02-26T01:54:05;16.63;;;16.63;;
84852;SDS011;75109;47.440;19.310;2024-02-26T01:54:39;16.83;;;16.83;;
84852;SDS011;75109;47.440;19.310;2024-02-26T01:55:14;16.93;;;16.77;;
84852;SDS011;75109;47.440;19.310;2024-02-26T01:55:47;16.73;;;16.67;;
84852;SDS011;75109;47.440;19.310;2024-02-26T01:56:20;16.60;;;16.60;;
84852;SDS011;75109;47.440;19.310;2024-02-26T01:56:53;16.27;;;16.27;;
84852;SDS011;75109;47.440;19.310;2024-02-26T01:57:26;16.70;;;16.70;;
84852;SDS011;75109;47.440;19.310;2024-02-26T01:57:59;16.03;;;16.03;;
84852;SDS011;75109;47.440;19.310;2024-02-26T01:58:32;17.13;;;17.13;;
84852;SDS011;75109;47.440;19.310;2024-02-26T01:59:06;16.23;;;16.23;;
84852;SDS011;75109;47.440;19.310;2024-02-26T01:59:40;16.10;;;16.10;;
84852;SDS011;75109;47.440;19.310;2024-02-26T02:00:13;17.17;;;17.17;;
84852;SDS011;75109;47.440;19.310;2024-02-26T02:00:48;17.13;;;17.13;;
84852;SDS011;75109;47.440;19.310;2024-02-26T02:01:20;17.43;;;17.43;;
84852;SDS011;75109;47.440;19.310;2024-02-26T02:01:57;16.80;;;16.80;;
84852;SDS011;75109;47.440;19.310;2024-02-26T02:02:33;17.43;;;17.43;;
84852;SDS011;75109;47.440;19.310;2024-02-26T02:03:05;17.40;;;17.40;;
84852;SDS011;75109;47.440;19.310;2024-02-26T02:03:38;16.27;;;16.27;;
84852;SDS011;75109;47.440;19.310;2024-02-26T02:04:10;17.00;;;17.00;;
84852;SDS011;75109;47.440;19.310;2024-02-26T02:04:43;16.60;;;16.60;;
84852;SDS011;75109;47.440;19.310;2024-02-26T02:05:15;17.80;;;17.80;;
84852;SDS011;75109;47.440;19.310;2024-02-26T02:05:51;16.70;;;16.70;;
84852;SDS011;75109;47.440;19.310;2024-02-26T02:06:23;17.57;;;17.57;;
84852;SDS011;75109;47.440;19.310;2024-02-26T02:06:56;18.23;;;18.23;;
84852;SDS011;75109;47.440;19.310;2024-02-26T02:07:31;17.77;;;17.77;;
84852;SDS011;75109;47.440;19.310;2024-02-26T02:08:04;17.70;;;17.70;;
84852;SDS011;75109;47.440;19.310;2024-02-26T02:08:37;17.73;;;17.73;;
84852;SDS011;75109;47.440;19.310;2024-02-26T02:09:10;16.53;;;16.53;;
84852;SDS011;75109;47.440;19.310;2024-02-26T02:09:42;16.40;;;16.40;;
84852;SDS011;75109;47.440;19.310;2024-02-26T02:10:15;16.83;;;16.83;;
84852;SDS011;75109;47.440;19.310;2024-02-26T02:10:49;17.23;;;17.23;;
84852;SDS011;75109;47.440;19.310;2024-02-26T02:11:24;16.80;;;16.80;;
84852;SDS011;75109;47.440;19.310;2024-02-26T02:11:56;16.73;;;16.73;;
84852;SDS011;75109;47.440;19.310;2024-02-26T02:12:29;17.27;;;17.27;;
84852;SDS011;75109;47.440;19.310;2024-02-26T02:13:04;17.57;;;17.57;;
84852;SDS011;75109;47.440;19.310;2024-02-26T02:13:36;16.77;;;16.77;;
84852;SDS011;75109;47.440;19.310;2024-02-26T02:14:09;16.37;;;16.37;;
84852;SDS011;75109;47.440;19.310;2024-02-26T02:14:41;16.80;;;16.70;;
84852;SDS011;75109;47.440;19.310;2024-02-26T02:15:13;17.37;;;17.33;;
84852;SDS011;75109;47.440;19.310;2024-02-26T02:15:45;18.17;;;18.17;;
84852;SDS011;75109;47.440;19.310;2024-02-26T02:16:17;17.53;;;17.53;;
84852;SDS011;75109;47.440;19.310;2024-02-26T02:16:49;16.60;;;16.60;;
84852;SDS011;75109;47.440;19.310;2024-02-26T02:17:21;16.63;;;16.63;;
84852;SDS011;75109;47.440;19.310;2024-02-26T02:17:53;16.47;;;16.47;;
84852;SDS011;75109;47.440;19.310;2024-02-26T02:18:25;16.53;;;16.53;;
84852;SDS011;75109;47.440;19.310;2024-02-26T02:18:58;16.80;;;16.80;;
84852;SDS011;75109;47.440;19.310;2024-02-26T02:19:30;17.37;;;17.37;;
84852;SDS011;75109;47.440;19.310;2024-02-26T02:20:02;16.20;;;16.20;;
84852;SDS011;75109;47.440;19.310;2024-02-26T02:20:36;16.40;;;16.40;;
84852;SDS011;75109;47.440;19.310;2024-02-26T02:21:08;16.47;;;16.47;;
84852;SDS011;75109;47.440;19.310;2024-02-26T02:21:41;16.70;;;16.70;;
84852;SDS011;75109;47.440;19.310;2024-02-26T02:22:13;17.17;;;17.17;;
84852;SDS011;75109;47.440;19.310;2024-02-26T02:22:45;17.40;;;17.40;;
84852;SDS011;75109;47.440;19.310;2024-02-26T02:23:17;17.00;;;17.00;;
84852;SDS011;75109;47.440;19.310;2024-02-26T02:23:49;16.97;;;16.97;;
84852;SDS011;75109;47.440;19.310;2024-02-26T02:24:22;16.63;;;16.63;;
84852;SDS011;75109;47.440;19.310;2024-02-26T02:24:54;17.03;;;17.03;;
84852;SDS011;75109;47.440;19.310;2024-02-26T02:25:26;17.37;;;17.37;;
84852;SDS011;75109;47.440;19.310;2024-02-26T02:25:58;17.63;;;17.63;;
84852;SDS011;75109;47.440;19.310;2024-02-26T02:26:31;16.33;;;16.33;;
84852;SDS011;75109;47.440;19.310;2024-02-26T02:27:03;17.13;;;17.13;;
84852;SDS011;75109;47.440;19.310;2024-02-26T02:27:35;18.13;;;18.13;;
84852;SDS011;75109;47.440;19.310;2024-02-26T02:28:08;17.67;;;17.67;;
84852;SDS011;75109;47.440;19.310;2024-02-26T02:28:41;16.60;;;16.60;;
84852;SDS011;75109;47.440;19.310;2024-02-26T02:29:13;17.23;;;17.23;;
84852;SDS011;75109;47.440;19.310;2024-02-26T02:29:46;19.23;;;19.07;;
84852;SDS011;75109;47.440;19.310;2024-02-26T02:30:20;18.77;;;18.47;;
84852;SDS011;75109;47.440;19.310;2024-02-26T02:30:54;18.70;;;18.30;;
84852;SDS011;75109;47.440;19.310;2024-02-26T02:31:27;19.23;;;18.83;;
84852;SDS011;75109;47.440;19.310;2024-02-26T02:31:59;18.77;;;18.77;;
84852;SDS011;75109;47.440;19.310;2024-02-26T02:32:35;17.20;;;17.20;;
84852;SDS011;75109;47.440;19.310;2024-02-26T02:33:11;17.90;;;17.90;;
84852;SDS011;75109;47.440;19.310;2024-02-26T02:33:44;18.87;;;18.87;;
84852;SDS011;75109;47.440;19.310;2024-02-26T02:34:16;18.97;;;18.97;;
84852;SDS011;75109;47.440;19.310;2024-02-26T02:34:49;18.83;;;18.83;;
84852;SDS011;75109;47.440;19.310;2024-02-26T02:35:21;19.43;;;19.43;;
84852;SDS011;75109;47.440;19.310;2024-02-26T02:35:54;19.23;;;19.23;;
84852;SDS011;75109;47.440;19.310;2024-02-26T02:36:27;18.63;;;18.63;;
84852;SDS011;75109;47.440;19.310;2024-02-26T02:36:59;18.40;;;18.40;;
84852;SDS011;75109;47.440;19.310;2024-02-26T02:37:31;18.40;;;18.40;;
84852;SDS011;75109;47.440;19.310;2024-02-26T02:38:03;18.30;;;18.30;;
84852;SDS011;75109;47.440;19.310;2024-02-26T02:38:35;17.53;;;17.53;;
84852;SDS011;75109;47.440;19.310;2024-02-26T02:39:07;18.37;;;18.37;;
84852;SDS011;75109;47.440;19.310;2024-02-26T02:39:39;18.40;;;18.40;;
84852;SDS011;75109;47.440;19.310;2024-02-26T02:40:14;18.47;;;18.47;;
84852;SDS011;75109;47.440;19.310;2024-02-26T02:40:46;18.30;;;18.30;;
84852;SDS011;75109;47.440;19.310;2024-02-26T02:41:18;18.17;;;18.17;;
84852;SDS011;75109;47.440;19.310;2024-02-26T02:41:50;18.70;;;18.70;;
84852;SDS011;75109;47.440;19.310;2024-02-26T02:42:23;19.00;;;19.00;;
84852;SDS011;75109;47.440;19.310;2024-02-26T02:42:55;18.37;;;18.37;;
84852;SDS011;75109;47.440;19.310;2024-02-26T02:43:27;17.87;;;17.87;;
84852;SDS011;75109;47.440;19.310;2024-02-26T02:43:59;18.03;;;18.03;;
84852;SDS011;75109;47.440;19.310;2024-02-26T02:44:31;17.23;;;17.23;;
84852;SDS011;75109;47.440;19.310;2024-02-26T02:45:04;17.53;;;17.53;;
84852;SDS011;75109;47.440;19.310;2024-02-26T02:45:36;16.53;;;16.53;;
84852;SDS011;75109;47.440;19.310;2024-02-26T02:46:09;17.67;;;17.67;;
84852;SDS011;75109;47.440;19.310;2024-02-26T02:46:43;17.93;;;17.93;;
84852;SDS011;75109;47.440;19.310;2024-02-26T02:47:15;17.60;;;17.60;;
84852;SDS011;75109;47.440;19.310;2024-02-26T02:47:47;17.37;;;17.37;;
84852;SDS011;75109;47.440;19.310;2024-02-26T02:48:19;17.10;;;17.10;;
84852;SDS011;75109;47.440;19.310;2024-02-26T02:48:51;16.20;;;16.20;;
84852;SDS011;75109;47.440;19.310;2024-02-26T02:49:23;16.20;;;16.20;;
84852;SDS011;75109;47.440;19.310;2024-02-26T02:49:55;17.30;;;17.27;;
84852;SDS011;75109;47.440;19.310;2024-02-26T02:50:27;17.43;;;17.43;;
84852;SDS011;75109;47.440;19.310;2024-02-26T02:51:02;16.83;;;16.83;;
84852;SDS011;75109;47.440;19.310;2024-02-26T02:51:34;17.70;;;17.70;;
84852;SDS011;75109;47.440;19.310;2024-02-26T02:52:06;18.23;;;18.23;;
84852;SDS011;75109;47.440;19.310;2024-02-26T02:52:39;17.30;;;17.30;;
84852;SDS011;75109;47.440;19.310;2024-02-26T02:53:11;16.33;;;16.33;;
84852;SDS011;75109;47.440;19.310;2024-02-26T02:53:43;16.57;;;16.57;;
84852;SDS011;75109;47.440;19.310;2024-02-26T02:54:15;16.23;;;16.23;;
84852;SDS011;75109;47.440;19.310;2024-02-26T02:54:47;16.53;;;16.53;;
84852;SDS011;75109;47.440;19.310;2024-02-26T02:55:19;16.83;;;16.83;;
84852;SDS011;75109;47.440;19.310;2024-02-26T02:55:51;17.40;;;17.40;;
84852;SDS011;75109;47.440;19.310;2024-02-26T02:56:24;17.40;;;17.40;;
84852;SDS011;75109;47.440;19.310;2024-02-26T02:56:56;16.97;;;16.97;;
84852;SDS011;75109;47.440;19.310;2024-02-26T02:57:28;17.67;;;17.67;;
84852;SDS011;75109;47.440;19.310;2024-02-26T02:58:01;17.63;;;17.63;;
84852;SDS011;75109;47.440;19.310;2024-02-26T02:58:34;16.00;;;16.00;;
84852;SDS011;75109;47.440;19.310;2024-02-26T02:59:06;15.93;;;15.93;;
84852;SDS011;75109;47.440;19.310;2024-02-26T02:59:38;16.57;;;16.57;;
84852;SDS011;75109;47.440;19.310;2024-02-26T03:00:11;16.70;;;16.70;;
84852;SDS011;75109;47.440;19.310;2024-02-26T03:00:44;16.93;;;16.93;;
84852;SDS011;75109;47.440;19.310;2024-02-26T03:01:16;16.17;;;16.17;;
84852;SDS011;75109;47.440;19.310;2024-02-26T03:01:48;16.40;;;16.40;;
84852;SDS011;75109;47.440;19.310;2024-02-26T03:02:20;16.47;;;16.47;;
84852;SDS011;75109;47.440;19.310;2024-02-26T03:02:52;16.43;;;16.27;;
84852;SDS011;75109;47.440;19.310;2024-02-26T03:03:24;16.10;;;16.00;;
84852;SDS011;75109;47.440;19.310;2024-02-26T03:03:56;16.93;;;16.93;;
84852;SDS011;75109;47.440;19.310;2024-02-26T03:04:28;17.80;;;17.80;;
84852;SDS011;75109;47.440;19.310;2024-02-26T03:05:01;16.53;;;16.53;;
84852;SDS011;75109;47.440;19.310;2024-02-26T03:05:33;16.87;;;16.87;;
84852;SDS011;75109;47.440;19.310;2024-02-26T03:06:07;16.13;;;16.13;;
84852;SDS011;75109;47.440;19.310;2024-02-26T03:06:39;17.33;;;17.33;;
84852;SDS011;75109;47.440;19.310;2024-02-26T03:07:11;16.90;;;16.90;;